• Join FlightAware (Why Join?)
  • Login
  • US Flag 
04:20AM EST


 

Airport Tracker/Info


-or-


 

Live Flight TrackerFlight Track Log ✈ EJA929 ✈ 22-May-2013 ✈ TXKF / BDA - KIAD

Flight Track Log - Related Links

Times and Time Zones

All times are in EDT time to prevent confusion due to time zone crossing. See the EJA929 flight status page for this flight to view local times or setup timezone preferences in your user account.

Time Position Orientation Groundspeed Altitude Reporting Facility
EDT Latitude Longitude Course Direction KTS MPH feet Rate Location/Type
02:29PM 32.3667 -64.6833 287° West 240 276 2,000  Level New York Oceanic (ODAPS)
02:34PM 32.4667 -65.0667 287° West 399 459 14,000  Climbing New York Oceanic (ODAPS)
02:35PM 32.5051 -65.2171 287° West 240 276 2,000 -6,729 Descending FlightAware Transoceanic
02:36PM 32.5433 -65.3677 287° West 240 276 2,000  Level FlightAware Transoceanic
02:37PM 32.5813 -65.5184 287° West 240 276 2,000 11,215 Level FlightAware Transoceanic
02:37PM 32.4667 -65.0667 287° West 399 459 22,000  Climbing New York Oceanic (ODAPS)
02:38PM 32.6192 -65.6693 287° West 240 276 2,000 -16,438 Descending FlightAware Transoceanic
02:39PM 32.6568 -65.8203 286° West 240 276 2,000 6,000 Level FlightAware Transoceanic
02:40PM 32.6568 -65.8203 286° West 399 459 14,000 20,219 Climbing FlightAware Transoceanic
02:40PM 32.4667 -65.0667 287° West 399 459 26,600  Climbing New York Oceanic (ODAPS)
02:41PM 32.6881 -65.9462 286° West 399 459 14,000 -7,065 Descending FlightAware Transoceanic
02:42PM 32.7192 -66.0722 286° West 399 459 14,000 10,588 Level FlightAware Transoceanic
02:42PM 32.4667 -65.0667 287° West 399 459 32,000  Climbing New York Oceanic (ODAPS)
02:43PM 32.7502 -66.1983 286° West 399 459 14,000 -7,692 Descending FlightAware Transoceanic
02:44PM 32.7811 -66.3245 286° West 399 459 22,000 4,000 Climbing FlightAware Transoceanic
02:45PM 32.8119 -66.4507 286° West 399 459 22,000 2,300 Level FlightAware Transoceanic
02:46PM 32.8425 -66.5771 286° West 399 459 26,600 11,250 Climbing FlightAware Transoceanic
02:46PM 32.4667 -65.0667 287° West 399 459 40,000 14,889 Climbing New York Oceanic (ODAPS)
02:46PM 32.4667 -65.0667 287° West 383 441 40,000 -33,500 Level New York Oceanic (ODAPS)
02:47PM 32.8730 -66.7035 286° West 399 459 26,600 1,935 Descending FlightAware Transoceanic
02:47PM 32.4667 -65.0667 287° West 383 441 41,000  Climbing New York Oceanic (ODAPS)
02:48PM 32.9034 -66.8300 286° West 399 459 26,600 -5,684 Descending FlightAware Transoceanic
02:49PM 32.9336 -66.9566 286° West 399 459 32,000 2,700 Climbing FlightAware Transoceanic
02:50PM 32.9637 -67.0833 286° West 399 459 32,000  Level FlightAware Transoceanic
02:51PM 32.9937 -67.2101 286° West 399 459 32,000 4,000 Level FlightAware Transoceanic
02:52PM 33.0235 -67.3370 286° West 399 459 40,000 4,500 Climbing FlightAware Transoceanic
02:53PM 33.0307 -67.3674 286° West 383 441 41,000 500 Climbing FlightAware Transoceanic
02:54PM 33.0592 -67.4893 286° West 383 441 41,000  Level FlightAware Transoceanic
02:55PM 33.0876 -67.6113 285° West 383 441 41,000  Level FlightAware Transoceanic
02:56PM 33.1159 -67.7334 285° West 383 441 41,000  Level FlightAware Transoceanic
02:57PM 33.1440 -67.8555 285° West 383 441 41,000  Level FlightAware Transoceanic
02:58PM 33.1721 -67.9777 285° West 383 441 41,000  Level FlightAware Transoceanic
02:58PM 33.2000 -68.1000 282° West 514 592 41,000  Level New York Oceanic (ODAPS)
02:59PM 33.2000 -68.1000 282° West 383 441 41,000  Level FlightAware Transoceanic
03:00PM 33.2303 -68.2716 282° West 383 441 41,000  Level FlightAware Transoceanic
03:00PM 33.2000 -68.1000 282° West 333 383 41,000  Level New York Oceanic (ODAPS)
03:01PM 33.2604 -68.4434 282° West 383 441 41,000  Level FlightAware Transoceanic
03:02PM 33.2903 -68.6152 282° West 383 441 41,000  Level FlightAware Transoceanic
03:03PM 33.3199 -68.7872 282° West 383 441 41,000  Level FlightAware Transoceanic
03:03PM 33.2000 -68.1000 282° West 499 574 41,000  Level New York Oceanic (ODAPS)
03:04PM 33.4645 -69.6489 281° West 514 592 41,000  Level FlightAware Transoceanic
03:05PM 33.4927 -69.8215 281° West 514 592 41,000  Level FlightAware Transoceanic
03:06PM 33.4052 -69.2911 281° West 333 383 41,000  Level FlightAware Transoceanic
03:07PM 33.4233 -69.3997 281° West 333 383 41,000  Level FlightAware Transoceanic
03:08PM 33.4413 -69.5083 281° West 333 383 41,000  Level FlightAware Transoceanic
03:09PM 33.5819 -70.3787 281° West 499 574 41,000  Level FlightAware Transoceanic
03:10PM 33.6076 -70.5422 281° West 499 574 41,000  Level FlightAware Transoceanic
03:11PM 33.6330 -70.7058 281° West 499 574 41,000  Level FlightAware Transoceanic
03:12PM 33.6583 -70.8695 280° West 499 574 41,000  Level FlightAware Transoceanic
03:13PM 33.6833 -71.0333 288° West 499 574 41,000  Level FlightAware Transoceanic
03:13PM 33.6833 -71.0333 288° West 437 503 41,000  Level New York Oceanic (ODAPS)
03:14PM 33.7252 -71.1929 287° West 499 574 41,000  Level FlightAware Transoceanic
03:15PM 33.7668 -71.3526 287° West 499 574 41,000  Level FlightAware Transoceanic
03:16PM 33.8083 -71.5125 287° West 499 574 41,000  Level FlightAware Transoceanic
03:17PM 33.8495 -71.6725 287° West 499 574 41,000  Level FlightAware Transoceanic
03:18PM 33.8906 -71.8327 287° West 499 574 41,000  Level FlightAware Transoceanic
03:19PM 33.9314 -71.9930 287° West 499 574 41,000  Level FlightAware Transoceanic
03:20PM 33.9945 -72.2427 287° West 437 503 41,000  Level FlightAware Transoceanic
03:21PM 34.0326 -72.3945 287° West 437 503 41,000  Level FlightAware Transoceanic
03:22PM 34.0704 -72.5464 287° West 437 503 41,000  Level FlightAware Transoceanic
03:23PM 34.1081 -72.6985 287° West 437 503 41,000  Level FlightAware Transoceanic
03:24PM 34.1456 -72.8507 287° West 437 503 41,000  Level FlightAware Transoceanic
03:25PM 34.1829 -73.0030 286° West 437 503 41,000  Level FlightAware Transoceanic
03:25PM 34.1603 -72.9297 286° West 516 594 41,000  Level New York Center
03:26PM 34.2201 -73.1555 286° West 437 503 41,000  Level FlightAware Transoceanic
03:26PM 34.2031 -73.0839 289° West 505 581 41,000  Level New York Center
03:27PM 34.2570 -73.3081 286° West 437 503 41,000  Level FlightAware Transoceanic
03:27PM 34.2458 -73.2383 289° West 500 575 41,000  Level New York Center
03:28PM 34.2819 -73.3978 285° West 500 575 41,000  Level New York Center
03:29PM 34.3219 -73.5575 287° West 500 575 41,000  Level New York Center
03:30PM 34.3619 -73.7122 287° West 500 575 41,000  Level New York Center
03:31PM 34.4483 -73.8389 310° West 476 548 41,000  Level New York Center
03:32PM 34.5408 -73.9633 312° West 487 560 41,000  Level New York Center
03:33PM 34.6397 -74.0808 316° Northwest 493 567 41,000  Level New York Center
03:34PM 34.7303 -74.1958 314° West 487 560 41,000  Level New York Center
03:35PM 34.8228 -74.3111 314° West 476 548 41,000  Level New York Center
03:36PM 34.9133 -74.4217 315° West 470 541 41,000  Level New York Center
03:37PM 35.0036 -74.5372 314° West 470 541 41,000  Level New York Center
03:39PM 35.1681 -74.7614 312° West 471 542 41,000  Level Washington Center
03:40PM 35.2628 -74.8697 317° Northwest 466 536 41,000  Level Washington Center
03:41PM 35.3531 -74.9911 312° West 472 543 41,000  Level Washington Center
03:42PM 35.4433 -75.1103 313° West 472 543 41,000  Level Washington Center
03:43PM 35.5336 -75.2272 314° West 472 543 41,000  Level Washington Center
03:44PM 35.6258 -75.3494 313° West 472 543 41,000 -605 Level Washington Center
03:45PM 35.7136 -75.4617 314° West 472 543 39,800 -1,140 Descending Washington Center
03:46PM 35.7972 -75.5742 313° West 458 527 38,700 -1,041 Descending Washington Center
03:47PM 35.8867 -75.6817 316° Northwest 447 514 37,700 -958 Descending Washington Center
03:48PM 35.9722 -75.8000 312° West 452 520 36,800 -915 Descending Washington Center
03:49PM 36.0597 -75.9131 314° West 452 520 35,900 -893 Descending Washington Center
03:50PM 36.1447 -76.0292 312° West 452 520 35,000 -1,770 Descending Washington Center
03:51PM 36.2383 -76.1381 317° Northwest 452 520 32,300 -2,479 Descending Washington Center
03:52PM 36.3381 -76.2289 324° Northwest 452 520 30,000 -1,916 Descending Washington Center
03:53PM 36.4333 -76.3175 323° Northwest 444 511 28,500 -1,500 Descending Washington Center
03:54PM 36.5247 -76.4036 323° Northwest 434 499 27,000 -1,537 Descending Washington Center
03:55PM 36.6200 -76.4900 324° Northwest 429 494 25,400 -1,017 Descending Washington Center
03:56PM 36.6925 -76.5606 322° Northwest 429 494 25,000 -203 Descending Washington Center
03:57PM 36.7981 -76.6553 324° Northwest 429 494 25,000  Level Washington Center
03:58PM 36.8953 -76.7475 323° Northwest 434 499 25,000  Level Washington Center
03:59PM 36.9864 -76.8322 323° Northwest 428 493 25,000  Level Washington Center
04:00PM 37.0772 -76.9169 323° Northwest 414 476 25,000  Level Washington Center
04:01PM 37.1428 -77.0197 309° West 396 456 25,000  Level Washington Center
04:02PM 37.2103 -77.1278 308° West 390 449 25,000 -694 Level Washington Center
04:03PM 37.2794 -77.2492 306° West 390 449 23,600 -1,140 Descending Washington Center
04:04PM 37.3447 -77.3553 308° West 390 449 22,700 -793 Descending Washington Center
04:05PM 37.4142 -77.4536 312° West 384 442 22,000 -356 Descending Washington Center
04:06PM 37.5222 -77.4825 348° North 364 419 22,000 -655 Level Washington Center
04:07PM 37.6308 -77.4744 North 369 425 20,700 -1,587 Descending Washington Center
04:08PM 37.7331 -77.4667 North 369 425 18,800 -1,884 Descending Washington Center
04:09PM 37.8333 -77.4611 North 363 418 16,900 -1,835 Descending Washington Center
04:10PM 37.9336 -77.4558 North 363 418 15,100 -1,881 Descending Washington Center
04:11PM 38.0253 -77.4503 North 356 410 13,200 -1,831 Descending Washington Center
04:12PM 38.1103 -77.4867 341° North 326 375 11,500 -1,537 Descending Washington Center
04:13PM 38.1836 -77.4594 16° North 272 313 10,100 -689 Descending Washington Center
04:14PM 38.2533 -77.4056 31° Northeast 272 313 10,100 -99 Level Washington Center
04:15PM 38.3292 -77.3597 25° Northeast 286 329 9,900 -915 Descending Washington Center
04:16PM 38.4125 -77.3564 North 291 335 8,300 -1,613 Descending Washington Center
04:17PM 38.4958 -77.3636 356° North 291 335 6,700 -1,574 Descending Washington Center
04:18PM 38.5750 -77.3683 357° North 291 335 5,100 -843 Descending Washington Center
04:19PM 38.6544 -77.3647 North 286 329 5,000 -203 Descending Washington Center
04:20PM 38.7336 -77.3614 North 286 329 4,700 -504 Descending Washington Center
04:21PM 38.8108 -77.3581 North 286 329 4,000 -318 Descending Washington Center
04:22PM 38.9000 -77.3500 North 274 315 4,000  Level Potomac TRACON
04:23PM 38.9833 -77.3500 360° North 235 270 4,000  Level Potomac TRACON
04:24PM 39.0500 -77.3500 360° North 233 268 4,000  Level Potomac TRACON
04:25PM 39.1167 -77.3500 360° North 234 269 4,000  Level Potomac TRACON
04:26PM 39.1667 -77.3500 360° North 218 251 4,000  Level Potomac TRACON
04:27PM 39.2333 -77.3333 11° North 208 239 4,000 -250 Level Potomac TRACON
04:28PM 39.2500 -77.3833 293° West 207 238 3,500 -550 Descending Potomac TRACON
04:29PM 39.2000 -77.4167 207° Southwest 164 189 2,900 -595 Descending Potomac TRACON
04:30PM 39.1500 -77.4333 194° South 167 192 2,300 -446 Descending Potomac TRACON
04:31PM 39.1167 -77.4333 180° South 168 193 2,000 -157 Descending Potomac TRACON
04:32PM 39.0667 -77.4333 180° South 173 199 2,000 -209 Level Potomac TRACON
04:33PM 39.0167 -77.4333 180° South 165 190 1,600 -550 Descending Potomac TRACON
04:34PM 38.9833 -77.4333 180° South 131 151 900 -700 Descending Potomac TRACON
04:36PM 38.9474 -77.4599 195° South  Level Estimated